createdAt,value
2022-08-19T00:05:33.881Z,3.9
2022-08-19T00:13:06.190Z,3.9
2022-08-19T00:20:38.514Z,3.9
2022-08-19T00:28:10.833Z,3.9
2022-08-19T00:35:43.180Z,3.9
2022-08-19T00:43:15.494Z,3.9
2022-08-19T00:50:51.485Z,3.9
2022-08-19T00:58:24.693Z,3.9
2022-08-19T01:05:57.005Z,3.9
2022-08-19T01:13:29.315Z,3.9
2022-08-19T01:21:11.609Z,3.9
2022-08-19T01:28:43.925Z,3.9
2022-08-19T01:36:16.261Z,3.9
2022-08-19T01:44:17.561Z,3.9
2022-08-19T01:51:30.866Z,3.9
2022-08-19T01:59:12.388Z,3.9
2022-08-19T02:06:44.706Z,3.9
2022-08-19T02:14:17.019Z,3.9
2022-08-19T02:21:49.357Z,3.9
2022-08-19T02:29:21.672Z,3.9
2022-08-19T02:36:54.007Z,3.9
2022-08-19T02:44:31.281Z,3.9
2022-08-19T02:52:04.206Z,3.9
2022-08-19T02:59:36.525Z,3.9
2022-08-19T03:07:10.764Z,3.9
2022-08-19T03:14:43.752Z,3.9
2022-08-19T03:22:16.073Z,3.9
2022-08-19T03:29:48.380Z,3.9
2022-08-19T03:37:21.758Z,3.9
2022-08-19T03:44:54.068Z,3.9
2022-08-19T03:52:26.384Z,3.9
2022-08-19T04:00:12.957Z,3.9
2022-08-19T04:07:40.972Z,4.1
2022-08-19T04:14:33.278Z,60.4
2022-08-19T04:15:20.738Z,58.9
2022-08-19T04:16:08.044Z,59.1
2022-08-19T04:16:55.756Z,58.7
2022-08-19T04:17:43.120Z,58.5
2022-08-19T04:18:33.596Z,58.4
2022-08-19T04:19:23.757Z,58.4
2022-08-19T04:20:11.063Z,58.2
2022-08-19T04:20:58.371Z,58.4
2022-08-19T04:21:45.681Z,58.3
2022-08-19T04:22:33.073Z,58.4
2022-08-19T04:23:20.392Z,58.1
2022-08-19T04:24:08.545Z,58.5
2022-08-19T04:24:55.955Z,58.1
2022-08-19T04:25:44.298Z,57.4
2022-08-19T04:26:31.600Z,58.0
2022-08-19T04:27:18.913Z,57.8
2022-08-19T04:28:06.352Z,57.8
2022-08-19T04:28:53.812Z,57.9
2022-08-19T04:29:41.115Z,58.3
2022-08-19T04:30:28.557Z,58.4
2022-08-19T04:31:16.172Z,57.9
2022-08-19T04:32:08.433Z,58.0
2022-08-19T04:32:56.871Z,57.7
2022-08-19T04:33:44.297Z,58.3
2022-08-19T04:34:31.615Z,57.8
2022-08-19T04:35:22.038Z,58.4
2022-08-19T04:36:11.788Z,58.0
2022-08-19T04:36:59.219Z,58.1
2022-08-19T04:37:46.519Z,58.3
2022-08-19T04:38:33.839Z,58.4
2022-08-19T04:39:21.225Z,58.1
2022-08-19T04:40:08.648Z,58.1
2022-08-19T04:40:55.980Z,58.1
2022-08-19T04:41:43.378Z,57.8
2022-08-19T04:42:31.076Z,58.2
2022-08-19T04:43:18.484Z,58.3
2022-08-19T04:44:05.898Z,58.2
2022-08-19T04:44:53.206Z,58.4
2022-08-19T04:45:43.606Z,58.3
2022-08-19T04:46:40.024Z,58.2
2022-08-19T04:47:48.315Z,58.2
2022-08-19T04:48:27.058Z,58.2
2022-08-19T04:49:15.030Z,58.5
2022-08-19T04:50:02.984Z,58.3
2022-08-19T04:50:50.324Z,58.2
2022-08-19T04:51:37.632Z,58.7
2022-08-19T04:52:24.949Z,58.2
2022-08-19T04:53:13.419Z,58.3
2022-08-19T04:54:00.728Z,58.6
2022-08-19T04:54:48.289Z,58.6
2022-08-19T04:55:38.305Z,59.0
2022-08-19T04:56:25.747Z,58.8
2022-08-19T04:57:13.074Z,58.9
2022-08-19T04:58:00.376Z,58.5
2022-08-19T04:58:47.674Z,58.6
2022-08-19T04:59:34.996Z,58.6
2022-08-19T05:00:22.321Z,57.9
2022-08-19T05:01:09.702Z,58.6
2022-08-19T05:01:57.069Z,58.3
2022-08-19T05:02:44.380Z,58.7
2022-08-19T05:03:31.677Z,58.7
2022-08-19T05:04:18.976Z,58.7
2022-08-19T05:05:08.824Z,58.4
2022-08-19T05:05:56.272Z,58.9
2022-08-19T05:06:43.602Z,59.1
2022-08-19T05:07:30.911Z,58.7
2022-08-19T05:08:18.333Z,58.8
2022-08-19T05:09:15.622Z,59.0
2022-08-19T05:10:03.058Z,58.8
2022-08-19T05:10:50.375Z,59.0
2022-08-19T05:11:37.692Z,59.0
2022-08-19T05:12:28.832Z,59.0
2022-08-19T05:13:16.726Z,59.2
2022-08-19T05:14:04.036Z,59.3
2022-08-19T05:14:51.350Z,58.7
2022-08-19T05:15:38.656Z,59.4
2022-08-19T05:16:26.072Z,59.1
2022-08-19T05:17:32.123Z,58.9
2022-08-19T05:18:10.707Z,59.1
2022-08-19T05:18:58.097Z,59.3
2022-08-19T05:19:45.426Z,58.9
2022-08-19T05:20:32.747Z,59.0
2022-08-19T05:21:20.293Z,59.6
2022-08-19T05:22:07.597Z,59.5
2022-08-19T05:22:55.086Z,60.3
2022-08-19T05:23:42.625Z,60.2
2022-08-19T05:24:30.077Z,60.5
2022-08-19T05:25:18.511Z,60.6
2022-08-19T05:26:05.842Z,61.6
2022-08-19T05:26:53.165Z,61.6
2022-08-19T05:27:40.484Z,61.4
2022-08-19T05:28:27.821Z,61.7
2022-08-19T05:29:16.957Z,61.8
2022-08-19T05:30:04.421Z,61.5
2022-08-19T05:30:51.769Z,61.7
2022-08-19T05:31:39.357Z,61.8
2022-08-19T05:32:29.156Z,61.9
2022-08-19T05:33:16.567Z,61.9
2022-08-19T05:34:03.898Z,62.1
2022-08-19T05:35:01.205Z,61.3
2022-08-19T05:35:48.664Z,62.1
2022-08-19T05:36:35.981Z,62.2
2022-08-19T05:37:23.316Z,61.9
2022-08-19T05:38:10.717Z,61.7
2022-08-19T05:38:58.180Z,62.0
2022-08-19T05:39:48.490Z,62.3
2022-08-19T05:40:38.676Z,62.2
2022-08-19T05:41:26.077Z,61.8
2022-08-19T05:42:13.408Z,61.9
2022-08-19T05:43:00.745Z,62.1
2022-08-19T05:43:48.190Z,62.4
2022-08-19T05:44:35.538Z,61.8
2022-08-19T05:45:22.871Z,62.3
2022-08-19T05:46:10.297Z,62.2
2022-08-19T05:46:57.630Z,62.1
2022-08-19T05:47:44.975Z,61.8
2022-08-19T05:48:32.388Z,62.4
2022-08-19T05:49:19.733Z,62.3
2022-08-19T05:50:07.074Z,62.5
2022-08-19T05:50:54.455Z,61.8
2022-08-19T05:51:41.784Z,65.8
2022-08-19T05:52:29.102Z,65.7
2022-08-19T05:53:17.827Z,65.7
2022-08-19T05:54:05.131Z,65.1
2022-08-19T05:54:52.458Z,66.0
2022-08-19T05:55:39.969Z,65.9
2022-08-19T05:56:27.336Z,65.5
2022-08-19T05:57:14.657Z,65.6
2022-08-19T05:58:02.146Z,66.0
2022-08-19T05:58:49.643Z,66.0
2022-08-19T05:59:36.975Z,66.1
2022-08-19T06:00:26.616Z,65.8
2022-08-19T06:01:14.552Z,65.5
2022-08-19T06:02:02.045Z,65.6
2022-08-19T06:02:49.605Z,65.6
2022-08-19T06:03:37.113Z,65.8
2022-08-19T06:04:24.579Z,65.7
2022-08-19T06:05:11.897Z,65.2
2022-08-19T06:05:59.218Z,65.4
2022-08-19T06:06:46.751Z,65.4
2022-08-19T06:08:33.960Z,65.7
2022-08-19T06:09:22.204Z,66.0
2022-08-19T06:10:09.601Z,65.6
2022-08-19T06:10:56.932Z,65.7
2022-08-19T06:11:44.296Z,65.4
2022-08-19T06:12:31.772Z,65.2
2022-08-19T06:13:19.143Z,66.0
2022-08-19T06:14:06.484Z,65.5
2022-08-19T06:15:00.501Z,65.8
2022-08-19T06:15:49.101Z,65.3
2022-08-19T06:16:36.502Z,66.2
2022-08-19T06:17:23.864Z,65.6
2022-08-19T06:18:11.204Z,66.1
2022-08-19T06:18:58.651Z,65.9
2022-08-19T06:19:45.983Z,65.6
2022-08-19T06:20:54.512Z,65.4
2022-08-19T06:21:30.622Z,65.7
2022-08-19T06:22:18.049Z,65.6
2022-08-19T06:23:05.514Z,65.7
2022-08-19T06:23:52.858Z,66.1
2022-08-19T06:24:40.231Z,65.7
2022-08-19T06:25:30.442Z,65.9
2022-08-19T06:26:17.939Z,65.7
2022-08-19T06:27:05.350Z,65.7
2022-08-19T06:28:14.126Z,65.3
2022-08-19T06:28:49.980Z,65.8
2022-08-19T06:29:37.400Z,66.1
2022-08-19T06:30:24.734Z,66.4
2022-08-19T06:31:12.068Z,65.9
2022-08-19T06:31:59.735Z,65.7
2022-08-19T06:32:47.070Z,66.0
2022-08-19T06:33:34.413Z,65.9
2022-08-19T06:34:22.811Z,65.8
2022-08-19T06:35:10.148Z,65.9
2022-08-19T06:35:57.521Z,66.1
2022-08-19T06:36:44.858Z,66.2
2022-08-19T06:37:32.288Z,66.0
2022-08-19T06:38:19.617Z,66.3
2022-08-19T06:39:06.943Z,66.0
2022-08-19T06:39:54.412Z,66.0
2022-08-19T06:40:41.762Z,66.5
2022-08-19T06:41:29.092Z,66.3
2022-08-19T06:42:16.532Z,65.7
2022-08-19T06:43:05.673Z,66.1
2022-08-19T06:43:55.833Z,66.1
2022-08-19T06:44:48.809Z,66.0
2022-08-19T06:45:39.402Z,66.6
2022-08-19T06:46:27.029Z,66.1
2022-08-19T06:47:23.572Z,65.9
2022-08-19T06:48:11.794Z,66.2
2022-08-19T06:48:59.191Z,66.7
2022-08-19T06:49:46.519Z,66.3
2022-08-19T06:50:33.869Z,66.4
2022-08-19T06:51:27.070Z,66.8
2022-08-19T06:52:19.161Z,66.4
2022-08-19T06:53:06.565Z,66.4
2022-08-19T06:53:53.918Z,66.6
2022-08-19T06:54:46.571Z,66.6
2022-08-19T06:55:40.532Z,66.9
2022-08-19T06:56:28.012Z,66.6
2022-08-19T06:57:15.349Z,67.0
2022-08-19T06:58:03.742Z,67.1
2022-08-19T06:58:51.164Z,67.0
2022-08-19T06:59:38.485Z,66.7
2022-08-19T07:00:25.924Z,66.7
2022-08-19T07:01:13.317Z,66.5
2022-08-19T07:02:00.673Z,66.8
2022-08-19T07:02:52.439Z,66.5
2022-08-19T07:03:44.693Z,67.1
2022-08-19T07:04:32.088Z,67.1
2022-08-19T07:05:19.436Z,66.5
2022-08-19T07:06:09.895Z,66.9
2022-08-19T07:07:12.528Z,66.8
2022-08-19T07:08:04.958Z,66.8
2022-08-19T07:08:52.420Z,67.2
2022-08-19T07:09:39.902Z,67.4
2022-08-19T07:10:27.928Z,66.9
2022-08-19T07:11:15.266Z,67.3
2022-08-19T07:12:02.584Z,67.3
2022-08-19T07:12:54.495Z,67.2
2022-08-19T07:13:41.973Z,66.6
2022-08-19T07:14:31.799Z,67.2
2022-08-19T07:15:19.124Z,67.1
2022-08-19T07:16:06.441Z,67.3
2022-08-19T07:16:54.589Z,66.5
2022-08-19T07:17:42.217Z,66.4
2022-08-19T07:18:29.669Z,66.9
2022-08-19T07:19:18.658Z,66.5
2022-08-19T07:20:09.327Z,66.3
2022-08-19T07:20:57.088Z,66.1
2022-08-19T07:21:44.547Z,66.2
2022-08-19T07:22:31.888Z,69.2
2022-08-19T07:23:19.240Z,66.1
2022-08-19T07:24:07.238Z,65.6
2022-08-19T07:24:54.707Z,66.4
2022-08-19T07:25:42.038Z,65.5
2022-08-19T07:26:29.365Z,69.0
2022-08-19T07:27:16.748Z,64.6
2022-08-19T07:28:04.544Z,64.1
2022-08-19T07:28:52.894Z,64.4
2022-08-19T07:29:40.399Z,64.5
2022-08-19T07:30:27.756Z,64.1
2022-08-19T07:31:15.212Z,64.4
2022-08-19T07:32:02.688Z,64.1
2022-08-19T07:32:50.595Z,64.4
2022-08-19T07:33:38.123Z,64.6
2022-08-19T07:34:25.447Z,64.5
2022-08-19T07:35:12.797Z,64.3
2022-08-19T07:36:00.221Z,64.1
2022-08-19T07:36:47.570Z,63.9
2022-08-19T07:37:34.894Z,64.5
2022-08-19T07:38:22.314Z,63.8
2022-08-19T07:39:09.654Z,64.1
2022-08-19T07:39:56.996Z,64.0
2022-08-19T07:40:44.430Z,63.9
2022-08-19T07:41:31.753Z,64.1
2022-08-19T07:42:19.090Z,64.1
2022-08-19T07:43:06.496Z,64.1
2022-08-19T07:43:53.818Z,63.6
2022-08-19T07:45:33.380Z,63.8
2022-08-19T07:46:20.797Z,63.0
2022-08-19T07:47:08.143Z,64.2
2022-08-19T07:48:05.827Z,63.3
2022-08-19T07:48:53.322Z,63.9
2022-08-19T07:49:40.864Z,63.6
2022-08-19T07:50:28.364Z,64.3
2022-08-19T07:51:15.715Z,64.4
2022-08-19T07:52:13.053Z,65.1
2022-08-19T07:53:00.481Z,64.8
2022-08-19T07:53:47.813Z,65.4
2022-08-19T07:54:35.145Z,65.1
2022-08-19T07:55:40.088Z,64.9
2022-08-19T07:56:19.850Z,65.1
2022-08-19T07:57:07.269Z,64.8
2022-08-19T07:57:54.580Z,64.9
2022-08-19T07:58:41.897Z,64.8
2022-08-19T07:59:29.291Z,65.3
2022-08-19T08:00:20.414Z,65.2
2022-08-19T08:01:11.693Z,65.4
2022-08-19T08:01:59.103Z,65.1
2022-08-19T08:02:46.539Z,64.9
2022-08-19T08:03:34.532Z,64.7
2022-08-19T08:04:21.913Z,64.2
2022-08-19T08:05:09.227Z,64.8
2022-08-19T08:05:56.592Z,64.9
2022-08-19T08:06:43.981Z,64.8
2022-08-19T08:07:31.855Z,64.7
2022-08-19T08:08:19.234Z,64.9
2022-08-19T08:09:06.991Z,64.8
2022-08-19T08:10:52.957Z,65.4
2022-08-19T08:11:40.559Z,65.2
2022-08-19T08:12:35.510Z,65.0
2022-08-19T08:13:22.930Z,65.2
2022-08-19T08:14:10.370Z,65.8
2022-08-19T08:15:08.134Z,66.2
2022-08-19T08:15:56.413Z,65.5
2022-08-19T08:16:46.791Z,66.1
2022-08-19T08:17:49.256Z,66.6
2022-08-19T08:18:32.065Z,66.6
2022-08-19T08:19:20.633Z,66.8
2022-08-19T08:20:13.144Z,67.0
2022-08-19T08:21:00.591Z,67.1
2022-08-19T08:21:47.965Z,67.0
2022-08-19T08:22:35.292Z,69.6
2022-08-19T08:23:22.703Z,66.7
2022-08-19T08:24:10.051Z,66.8
2022-08-19T08:24:57.398Z,67.1
2022-08-19T08:25:45.597Z,66.6
2022-08-19T08:26:36.569Z,67.0
2022-08-19T08:27:27.072Z,67.1
2022-08-19T08:28:17.737Z,67.5
2022-08-19T08:29:12.537Z,67.7
2022-08-19T08:30:02.789Z,67.9
2022-08-19T08:30:50.780Z,67.6
2022-08-19T08:31:38.251Z,67.2
2022-08-19T08:32:25.807Z,67.6
2022-08-19T08:33:13.267Z,67.4
2022-08-19T08:34:01.364Z,67.8
2022-08-19T08:34:50.064Z,67.3
2022-08-19T08:35:39.838Z,67.7
2022-08-19T08:36:27.178Z,67.4
2022-08-19T08:37:16.137Z,67.7
2022-08-19T08:38:03.629Z,67.8
2022-08-19T08:38:51.047Z,67.4
2022-08-19T08:39:38.408Z,67.5
2022-08-19T08:40:25.791Z,67.8
2022-08-19T08:41:13.184Z,67.9
2022-08-19T08:42:00.531Z,67.6
2022-08-19T08:42:57.460Z,67.9
2022-08-19T08:43:44.887Z,68.0
2022-08-19T08:44:32.221Z,67.8
2022-08-19T08:45:19.545Z,67.6
2022-08-19T08:46:07.553Z,67.8
2022-08-19T08:46:55.009Z,68.1
2022-08-19T08:47:42.338Z,68.1
2022-08-19T08:48:29.660Z,67.6
2022-08-19T08:49:17.164Z,67.6
2022-08-19T08:50:04.481Z,67.7
2022-08-19T08:50:51.998Z,68.3
2022-08-19T08:51:39.432Z,68.4
2022-08-19T08:52:32.227Z,67.6
2022-08-19T08:53:29.621Z,68.2
2022-08-19T08:54:17.726Z,67.8
2022-08-19T08:55:09.958Z,68.1
2022-08-19T08:55:57.644Z,67.5
2022-08-19T08:56:45.247Z,68.2
2022-08-19T08:57:38.604Z,68.1
2022-08-19T08:58:28.291Z,67.5
2022-08-19T08:59:15.646Z,66.8
2022-08-19T09:00:02.964Z,68.1
2022-08-19T09:00:51.831Z,67.7
2022-08-19T09:01:39.319Z,68.4
2022-08-19T09:02:26.657Z,67.4
2022-08-19T09:03:13.977Z,68.1
2022-08-19T09:04:02.997Z,68.2
2022-08-19T09:04:51.181Z,67.9
2022-08-19T09:05:42.129Z,68.0
2022-08-19T09:06:35.833Z,68.1
2022-08-19T09:07:34.729Z,68.3
2022-08-19T09:08:20.521Z,67.9
2022-08-19T09:09:11.867Z,68.0
2022-08-19T09:09:59.616Z,68.5
2022-08-19T09:10:46.933Z,68.2
2022-08-19T09:11:42.634Z,68.0
2022-08-19T09:12:31.561Z,68.1
2022-08-19T09:13:18.959Z,67.8
2022-08-19T09:14:06.277Z,67.8
2022-08-19T09:14:53.598Z,67.8
2022-08-19T09:15:41.004Z,67.9
2022-08-19T09:16:28.333Z,67.9
2022-08-19T09:17:15.678Z,68.2
2022-08-19T09:18:03.080Z,68.1
2022-08-19T09:18:54.427Z,68.5
2022-08-19T09:19:41.923Z,68.5
2022-08-19T09:20:29.265Z,69.1
2022-08-19T09:21:16.603Z,68.6
2022-08-19T09:22:04.543Z,68.8
2022-08-19T09:22:52.053Z,68.8
2022-08-19T09:23:39.384Z,68.6
2022-08-19T09:24:31.245Z,68.8
2022-08-19T09:25:24.623Z,68.9
2022-08-19T09:26:14.502Z,68.9
2022-08-19T09:27:08.305Z,68.7
2022-08-19T09:28:03.106Z,68.6
2022-08-19T09:28:53.277Z,68.8
2022-08-19T09:29:41.424Z,68.3
2022-08-19T09:30:29.509Z,68.3
2022-08-19T09:31:18.737Z,68.8
2022-08-19T09:32:06.049Z,69.1
2022-08-19T09:33:03.344Z,68.9
2022-08-19T09:33:52.335Z,69.3
2022-08-19T09:34:39.732Z,69.1
2022-08-19T09:35:31.646Z,69.6
2022-08-19T09:36:31.225Z,68.8
2022-08-19T09:37:18.992Z,71.5
2022-08-19T09:38:06.421Z,71.0
2022-08-19T09:38:53.741Z,69.0
2022-08-19T09:39:41.506Z,70.5
2022-08-19T09:40:30.311Z,71.9
2022-08-19T09:41:18.867Z,73.0
2022-08-19T09:42:06.210Z,72.2
2022-08-19T09:43:10.026Z,69.8
2022-08-19T09:44:00.260Z,64.9
2022-08-19T09:44:48.240Z,63.3
2022-08-19T09:45:35.732Z,63.1
2022-08-19T09:46:23.058Z,65.3
2022-08-19T09:47:11.289Z,64.9
2022-08-19T09:47:58.857Z,64.3
2022-08-19T09:48:46.212Z,69.5
2022-08-19T09:49:33.540Z,70.1
2022-08-19T09:50:20.972Z,69.8
2022-08-19T09:51:08.300Z,66.7
2022-08-19T09:51:59.299Z,63.1
2022-08-19T09:52:55.018Z,62.8
2022-08-19T09:53:44.037Z,62.2
2022-08-19T09:54:31.423Z,62.5
2022-08-19T09:55:19.177Z,66.0
2022-08-19T09:56:06.493Z,69.4
2022-08-19T09:56:55.511Z,69.1
2022-08-19T09:57:43.031Z,69.0
2022-08-19T09:58:30.350Z,68.7
2022-08-19T09:59:17.677Z,69.0
2022-08-19T10:00:05.089Z,68.5
2022-08-19T10:00:52.469Z,68.9
2022-08-19T10:01:39.840Z,68.6
2022-08-19T10:02:28.925Z,69.0
2022-08-19T10:03:16.372Z,68.7
2022-08-19T10:04:08.979Z,67.9
2022-08-19T10:05:01.009Z,68.0
2022-08-19T10:05:48.853Z,68.0
2022-08-19T10:06:43.935Z,68.7
2022-08-19T10:07:36.389Z,68.2
2022-08-19T10:08:24.039Z,68.2
2022-08-19T10:09:13.848Z,68.0
2022-08-19T10:10:01.172Z,67.1
2022-08-19T10:10:48.497Z,67.7
2022-08-19T10:18:21.833Z,11.4
2022-08-19T10:25:54.173Z,10.2
2022-08-19T10:33:39.339Z,11.0
2022-08-19T10:41:08.814Z,10.8
2022-08-19T10:48:41.361Z,10.6
2022-08-19T10:54:33.655Z,69.8
2022-08-19T10:55:21.908Z,66.1
2022-08-19T10:56:09.225Z,67.0
2022-08-19T10:56:56.552Z,68.2
2022-08-19T10:58:01.675Z,67.8
2022-08-19T10:58:42.290Z,63.2
2022-08-19T10:59:33.859Z,68.2
2022-08-19T11:00:23.238Z,67.9
2022-08-19T11:01:10.693Z,67.7
2022-08-19T11:01:58.033Z,67.7
2022-08-19T11:02:45.350Z,67.2
2022-08-19T11:03:32.760Z,67.8
2022-08-19T11:04:20.072Z,68.1
2022-08-19T11:05:12.639Z,67.4
2022-08-19T11:06:00.921Z,68.1
2022-08-19T11:06:48.338Z,67.5
2022-08-19T11:07:36.412Z,67.5
2022-08-19T11:08:24.149Z,67.8
2022-08-19T11:09:11.550Z,67.5
2022-08-19T11:09:58.992Z,67.5
2022-08-19T11:10:46.812Z,67.2
2022-08-19T11:11:39.347Z,67.2
2022-08-19T11:12:26.834Z,67.4
2022-08-19T11:13:14.157Z,67.4
2022-08-19T11:14:01.490Z,67.7
2022-08-19T11:14:48.826Z,67.1
2022-08-19T11:15:36.204Z,66.7
2022-08-19T11:16:23.552Z,67.2
2022-08-19T11:17:12.461Z,67.4
2022-08-19T11:17:59.874Z,67.4
2022-08-19T11:18:47.180Z,67.0
2022-08-19T11:19:34.493Z,66.7
2022-08-19T11:20:21.820Z,67.1
2022-08-19T11:21:09.253Z,66.9
2022-08-19T11:22:00.060Z,67.2
2022-08-19T11:22:47.634Z,67.1
2022-08-19T11:23:36.006Z,66.9
2022-08-19T11:24:23.320Z,67.0
2022-08-19T11:25:10.745Z,66.8
2022-08-19T11:25:58.191Z,67.0
2022-08-19T11:26:45.631Z,66.6
2022-08-19T11:27:32.954Z,66.8
2022-08-19T11:28:20.309Z,66.6
2022-08-19T11:29:07.762Z,67.0
2022-08-19T11:29:55.097Z,66.7
2022-08-19T11:30:42.445Z,66.7
2022-08-19T11:31:29.870Z,66.8
2022-08-19T11:32:17.193Z,66.7
2022-08-19T11:33:04.562Z,66.9
2022-08-19T11:33:51.957Z,66.3
2022-08-19T11:34:39.337Z,66.7
2022-08-19T11:35:26.681Z,66.8
2022-08-19T11:36:14.984Z,66.4
2022-08-19T11:37:02.529Z,66.2
2022-08-19T11:37:50.154Z,66.8
2022-08-19T11:38:37.530Z,66.8
2022-08-19T11:39:24.856Z,66.8
2022-08-19T11:40:12.256Z,66.7
2022-08-19T11:40:59.690Z,66.3
2022-08-19T11:41:47.031Z,66.2
2022-08-19T11:42:34.370Z,66.7
2022-08-19T11:43:21.725Z,66.2
2022-08-19T11:44:09.053Z,65.9
2022-08-19T11:44:56.393Z,66.0
2022-08-19T11:45:43.740Z,66.2
2022-08-19T11:46:31.063Z,66.4
2022-08-19T11:47:18.375Z,66.4
2022-08-19T11:48:05.701Z,66.3
2022-08-19T11:48:53.021Z,66.2
2022-08-19T11:49:40.338Z,66.5
2022-08-19T11:50:27.673Z,66.1
2022-08-19T11:51:14.990Z,66.8
2022-08-19T11:52:02.311Z,66.2
2022-08-19T11:52:49.646Z,66.2
2022-08-19T11:53:36.967Z,66.4
2022-08-19T11:54:24.296Z,66.4
2022-08-19T11:55:11.623Z,66.4
2022-08-19T11:55:58.955Z,66.2
2022-08-19T11:56:46.302Z,66.5
2022-08-19T11:57:33.673Z,66.4
2022-08-19T11:58:21.002Z,66.6
2022-08-19T11:59:12.780Z,66.0
2022-08-19T12:00:01.895Z,66.1
2022-08-19T12:00:49.325Z,66.5
2022-08-19T12:01:36.654Z,64.0
2022-08-19T12:02:24.127Z,65.4
2022-08-19T12:03:11.505Z,66.0
2022-08-19T12:03:58.922Z,66.2
2022-08-19T12:04:46.338Z,66.0
2022-08-19T12:05:33.751Z,66.2
2022-08-19T12:06:22.278Z,65.9
2022-08-19T12:07:09.795Z,65.9
2022-08-19T12:07:57.138Z,66.1
2022-08-19T12:08:44.463Z,66.5
2022-08-19T12:09:31.784Z,65.7
2022-08-19T12:10:21.394Z,65.4
2022-08-19T12:11:10.978Z,65.5
2022-08-19T12:11:58.321Z,66.0
2022-08-19T12:12:45.675Z,66.0
2022-08-19T12:13:41.198Z,65.9
2022-08-19T12:14:28.589Z,65.7
2022-08-19T12:15:15.973Z,65.7
2022-08-19T12:16:03.369Z,65.7
2022-08-19T12:16:52.539Z,65.7
2022-08-19T12:17:40.026Z,65.8
2022-08-19T12:18:27.361Z,66.0
2022-08-19T12:19:15.113Z,66.4
2022-08-19T12:20:09.418Z,66.2
2022-08-19T12:20:56.800Z,66.1
2022-08-19T12:21:44.140Z,66.1
2022-08-19T12:22:31.473Z,66.2
2022-08-19T12:23:18.948Z,66.3
2022-08-19T12:24:06.300Z,66.3
2022-08-19T12:24:54.133Z,66.0
2022-08-19T12:25:41.465Z,66.4
2022-08-19T12:26:28.798Z,66.3
2022-08-19T12:27:31.982Z,66.2
2022-08-19T12:28:13.454Z,65.9
2022-08-19T12:29:00.890Z,65.6
2022-08-19T12:29:48.241Z,65.6
2022-08-19T12:30:35.561Z,65.5
2022-08-19T12:31:23.014Z,65.9
2022-08-19T12:32:13.039Z,65.9
2022-08-19T12:33:00.454Z,65.7
2022-08-19T12:33:47.848Z,65.8
2022-08-19T12:34:35.238Z,65.5
2022-08-19T12:35:22.633Z,65.8
2022-08-19T12:36:09.983Z,65.6
2022-08-19T12:36:57.417Z,65.4
2022-08-19T12:37:44.780Z,65.8
2022-08-19T12:38:42.102Z,65.9
2022-08-19T12:39:29.555Z,65.6
2022-08-19T12:40:16.958Z,65.7
2022-08-19T12:41:04.354Z,66.2
2022-08-19T12:41:54.853Z,65.9
2022-08-19T12:42:42.601Z,65.6
2022-08-19T12:43:29.983Z,65.9
2022-08-19T12:44:17.376Z,65.7
2022-08-19T12:45:06.955Z,65.9
2022-08-19T12:45:55.680Z,66.5
2022-08-19T12:46:44.154Z,66.1
2022-08-19T12:47:31.529Z,65.9
2022-08-19T12:48:34.675Z,66.2
2022-08-19T12:49:51.987Z,66.1
2022-08-19T12:50:15.542Z,65.9
2022-08-19T12:51:03.305Z,65.7
2022-08-19T12:51:50.756Z,65.4
2022-08-19T12:52:38.109Z,65.4
2022-08-19T12:53:25.521Z,66.3
2022-08-19T12:54:12.875Z,65.8
2022-08-19T12:55:01.400Z,66.0
2022-08-19T12:55:48.779Z,66.8
2022-08-19T12:56:36.199Z,67.0
2022-08-19T12:57:27.037Z,67.2
2022-08-19T12:58:24.208Z,68.3
2022-08-19T12:59:14.350Z,68.5
2022-08-19T13:00:01.682Z,68.7
2022-08-19T13:00:52.544Z,67.8
2022-08-19T13:01:39.960Z,67.2
2022-08-19T13:02:27.375Z,66.5
2022-08-19T13:03:14.764Z,66.3
2022-08-19T13:04:02.142Z,66.2
2022-08-19T13:04:52.658Z,66.5
2022-08-19T13:05:40.114Z,65.9
2022-08-19T13:06:27.517Z,66.1
2022-08-19T13:07:14.838Z,66.0
2022-08-19T13:08:02.178Z,66.2
2022-08-19T13:08:49.593Z,66.1
2022-08-19T13:09:36.933Z,66.2
2022-08-19T13:10:24.242Z,66.2
2022-08-19T13:11:11.688Z,66.0
2022-08-19T13:11:59.052Z,66.3
2022-08-19T13:12:46.430Z,65.6
2022-08-19T13:13:33.863Z,65.9
2022-08-19T13:14:21.208Z,65.7
2022-08-19T13:15:10.919Z,65.9
2022-08-19T13:15:58.643Z,65.5
2022-08-19T13:16:46.121Z,66.2
2022-08-19T13:17:33.505Z,66.1
2022-08-19T13:18:20.833Z,66.0
2022-08-19T13:19:08.269Z,65.8
2022-08-19T13:19:55.604Z,65.9
2022-08-19T13:20:43.013Z,66.1
2022-08-19T13:21:39.991Z,66.2
2022-08-19T13:22:30.048Z,66.0
2022-08-19T13:23:17.451Z,65.9
2022-08-19T13:24:04.840Z,66.2
2022-08-19T13:24:52.284Z,66.3
2022-08-19T13:25:39.681Z,66.0
2022-08-19T13:26:27.009Z,66.0
2022-08-19T13:27:14.351Z,66.1
2022-08-19T13:28:01.761Z,65.5
2022-08-19T13:28:49.117Z,65.6
2022-08-19T13:29:36.616Z,65.8
2022-08-19T13:30:23.963Z,65.2
2022-08-19T13:31:11.301Z,66.1
2022-08-19T13:31:58.928Z,66.4
2022-08-19T13:32:46.731Z,66.5
2022-08-19T13:33:36.221Z,66.9
2022-08-19T13:34:23.609Z,66.3
2022-08-19T13:35:13.771Z,67.0
2022-08-19T13:36:03.929Z,66.6
2022-08-19T13:36:51.568Z,66.9
2022-08-19T13:37:44.230Z,65.8
2022-08-19T13:38:31.631Z,66.4
2022-08-19T13:39:19.007Z,66.6
2022-08-19T13:40:06.409Z,66.4
2022-08-19T13:40:53.828Z,66.4
2022-08-19T13:41:41.148Z,66.6
2022-08-19T13:42:28.470Z,66.4
2022-08-19T13:43:22.793Z,66.4
2022-08-19T13:44:10.824Z,65.6
2022-08-19T13:44:58.266Z,65.1
2022-08-19T13:45:45.648Z,64.9
2022-08-19T13:46:33.043Z,65.2
2022-08-19T13:47:20.452Z,65.4
2022-08-19T13:48:08.061Z,65.2
2022-08-19T13:48:55.503Z,64.7
2022-08-19T13:49:42.920Z,64.3
2022-08-19T13:50:30.353Z,64.4
2022-08-19T13:51:17.724Z,64.2
2022-08-19T13:52:05.106Z,63.9
2022-08-19T13:52:52.449Z,64.4
2022-08-19T13:53:41.378Z,63.8
2022-08-19T13:54:28.735Z,64.3
2022-08-19T13:55:16.091Z,63.9
2022-08-19T13:56:12.462Z,64.1
2022-08-19T13:56:59.793Z,63.4
2022-08-19T13:57:47.098Z,63.7
2022-08-19T13:58:34.432Z,63.9
2022-08-19T13:59:21.809Z,63.5
2022-08-19T14:00:09.175Z,63.7
2022-08-19T14:00:56.576Z,63.1
2022-08-19T14:01:44.001Z,63.3
2022-08-19T14:02:31.339Z,63.6
2022-08-19T14:03:20.260Z,63.6
2022-08-19T14:04:07.805Z,62.8
2022-08-19T14:04:55.143Z,62.6
2022-08-19T14:05:42.487Z,62.7
2022-08-19T14:06:29.820Z,62.6
2022-08-19T14:07:17.304Z,62.6
2022-08-19T14:08:04.686Z,62.8
2022-08-19T14:08:52.049Z,62.6
2022-08-19T14:09:39.470Z,62.8
2022-08-19T14:10:26.808Z,63.0
2022-08-19T14:11:14.149Z,63.1
2022-08-19T14:12:01.668Z,62.3
2022-08-19T14:12:49.047Z,62.9
2022-08-19T14:13:36.488Z,63.1
2022-08-19T14:14:23.857Z,62.7
2022-08-19T14:15:11.244Z,62.2
2022-08-19T14:15:58.586Z,62.7
2022-08-19T14:16:47.081Z,62.3
2022-08-19T14:17:34.471Z,63.1
2022-08-19T14:18:21.842Z,62.8
2022-08-19T14:19:09.162Z,63.1
2022-08-19T14:19:56.591Z,62.9
2022-08-19T14:20:45.210Z,62.6
2022-08-19T14:21:32.626Z,62.0
2022-08-19T14:22:22.256Z,62.5
2022-08-19T14:23:09.849Z,62.8
2022-08-19T14:23:57.186Z,62.9
2022-08-19T14:24:48.029Z,62.3
2022-08-19T14:25:35.944Z,62.7
2022-08-19T14:26:23.353Z,62.2
2022-08-19T14:27:12.973Z,62.5
2022-08-19T14:28:00.888Z,62.4
2022-08-19T14:28:48.400Z,62.4
2022-08-19T14:29:35.963Z,63.0
2022-08-19T14:30:23.286Z,62.5
2022-08-19T14:31:10.610Z,62.5
2022-08-19T14:31:58.031Z,62.1
2022-08-19T14:32:45.352Z,62.4
2022-08-19T14:33:32.698Z,62.2
2022-08-19T14:34:20.142Z,62.7
2022-08-19T14:35:07.487Z,62.0
2022-08-19T14:35:54.805Z,62.2
2022-08-19T14:36:47.353Z,62.1
2022-08-19T14:37:45.167Z,62.3
2022-08-19T14:38:34.536Z,61.7
2022-08-19T14:39:21.952Z,61.8
2022-08-19T14:40:09.313Z,62.2
2022-08-19T14:40:56.640Z,62.3
2022-08-19T14:41:44.053Z,61.7
2022-08-19T14:42:31.359Z,60.7
2022-08-19T14:43:18.678Z,62.2
2022-08-19T14:44:06.108Z,61.9
2022-08-19T14:44:53.432Z,62.3
2022-08-19T14:45:41.063Z,62.2
2022-08-19T14:46:29.621Z,62.4
2022-08-19T14:47:17.069Z,62.1
2022-08-19T14:48:04.689Z,62.2
2022-08-19T14:48:52.733Z,62.2
2022-08-19T14:49:42.326Z,62.4
2022-08-19T14:50:32.123Z,62.0
2022-08-19T14:51:19.517Z,62.3
2022-08-19T14:52:06.832Z,62.1
2022-08-19T14:52:54.249Z,61.5
2022-08-19T14:53:41.653Z,61.7
2022-08-19T14:54:30.389Z,61.5
2022-08-19T14:55:17.811Z,61.8
2022-08-19T14:56:05.220Z,61.6
2022-08-19T14:56:52.549Z,62.2
2022-08-19T15:04:25.046Z,6.6
2022-08-19T15:11:57.543Z,6.6
2022-08-19T15:12:48.603Z,63.2
2022-08-19T15:13:38.433Z,62.9
2022-08-19T15:14:25.882Z,62.2
2022-08-19T15:15:13.219Z,62.1
2022-08-19T15:16:00.536Z,62.6
2022-08-19T15:16:47.953Z,62.3
2022-08-19T15:17:45.938Z,62.1
2022-08-19T15:18:32.571Z,62.0
2022-08-19T15:19:19.997Z,61.8
2022-08-19T15:20:07.312Z,62.3
2022-08-19T15:20:54.631Z,61.9
2022-08-19T15:28:26.993Z,6.5
2022-08-19T15:35:59.314Z,3.9
2022-08-19T15:43:31.641Z,3.9
2022-08-19T15:51:03.949Z,3.9
2022-08-19T15:58:36.270Z,3.9
2022-08-19T16:06:08.619Z,4.2
2022-08-19T16:13:40.951Z,4.1
2022-08-19T16:21:13.282Z,3.9
2022-08-19T16:28:45.608Z,3.9